sensor_id;sensor_type;location;lat;lon;timestamp;P1;durP1;ratioP1;P2;durP2;ratioP2
9906;SDS011;4992;51.628;6.664;2022-11-20T00:00:00;14.07;;;11.30;;
9906;SDS011;4992;51.628;6.664;2022-11-20T00:02:26;15.07;;;12.13;;
9906;SDS011;4992;51.628;6.664;2022-11-20T00:04:51;15.10;;;11.13;;
9906;SDS011;4992;51.628;6.664;2022-11-20T00:07:17;14.57;;;10.97;;
9906;SDS011;4992;51.628;6.664;2022-11-20T00:09:42;14.80;;;11.23;;
9906;SDS011;4992;51.628;6.664;2022-11-20T00:12:08;13.47;;;11.07;;
9906;SDS011;4992;51.628;6.664;2022-11-20T00:14:33;15.37;;;11.10;;
9906;SDS011;4992;51.628;6.664;2022-11-20T00:16:59;13.87;;;11.60;;
9906;SDS011;4992;51.628;6.664;2022-11-20T00:19:24;14.07;;;11.03;;
9906;SDS011;4992;51.628;6.664;2022-11-20T00:21:50;13.97;;;11.20;;
9906;SDS011;4992;51.628;6.664;2022-11-20T00:24:18;13.27;;;11.43;;
9906;SDS011;4992;51.628;6.664;2022-11-20T00:26:44;14.20;;;11.33;;
9906;SDS011;4992;51.628;6.664;2022-11-20T00:29:09;15.97;;;12.30;;
9906;SDS011;4992;51.628;6.664;2022-11-20T00:31:35;13.33;;;11.30;;
9906;SDS011;4992;51.628;6.664;2022-11-20T00:34:01;13.30;;;10.80;;
9906;SDS011;4992;51.628;6.664;2022-11-20T00:36:27;16.10;;;12.50;;
9906;SDS011;4992;51.628;6.664;2022-11-20T00:38:55;14.73;;;11.33;;
9906;SDS011;4992;51.628;6.664;2022-11-20T00:41:22;15.83;;;12.60;;
9906;SDS011;4992;51.628;6.664;2022-11-20T00:43:49;18.67;;;13.17;;
9906;SDS011;4992;51.628;6.664;2022-11-20T00:46:17;16.37;;;12.57;;
9906;SDS011;4992;51.628;6.664;2022-11-20T00:48:44;17.70;;;13.47;;
9906;SDS011;4992;51.628;6.664;2022-11-20T00:51:11;16.83;;;13.10;;
9906;SDS011;4992;51.628;6.664;2022-11-20T00:53:39;16.40;;;13.40;;
9906;SDS011;4992;51.628;6.664;2022-11-20T00:56:06;17.70;;;12.60;;
9906;SDS011;4992;51.628;6.664;2022-11-20T00:58:33;18.30;;;13.27;;
9906;SDS011;4992;51.628;6.664;2022-11-20T01:01:01;17.17;;;13.53;;
9906;SDS011;4992;51.628;6.664;2022-11-20T01:03:27;18.63;;;14.50;;
9906;SDS011;4992;51.628;6.664;2022-11-20T01:05:53;18.13;;;13.40;;
9906;SDS011;4992;51.628;6.664;2022-11-20T01:08:18;15.60;;;12.93;;
9906;SDS011;4992;51.628;6.664;2022-11-20T01:10:43;15.60;;;12.47;;
9906;SDS011;4992;51.628;6.664;2022-11-20T01:13:09;14.97;;;12.60;;
9906;SDS011;4992;51.628;6.664;2022-11-20T01:15:53;15.90;;;12.10;;
9906;SDS011;4992;51.628;6.664;2022-11-20T01:18:19;18.03;;;13.77;;
9906;SDS011;4992;51.628;6.664;2022-11-20T01:20:44;16.97;;;12.37;;
9906;SDS011;4992;51.628;6.664;2022-11-20T01:23:10;16.30;;;12.93;;
9906;SDS011;4992;51.628;6.664;2022-11-20T01:25:35;18.70;;;15.17;;
9906;SDS011;4992;51.628;6.664;2022-11-20T01:28:02;16.23;;;13.60;;
9906;SDS011;4992;51.628;6.664;2022-11-20T01:30:28;17.57;;;14.07;;
9906;SDS011;4992;51.628;6.664;2022-11-20T01:32:54;17.80;;;12.87;;
9906;SDS011;4992;51.628;6.664;2022-11-20T01:35:20;19.30;;;14.53;;
9906;SDS011;4992;51.628;6.664;2022-11-20T01:37:46;17.10;;;12.43;;
9906;SDS011;4992;51.628;6.664;2022-11-20T01:40:11;17.83;;;12.63;;
9906;SDS011;4992;51.628;6.664;2022-11-20T01:42:37;14.23;;;11.77;;
9906;SDS011;4992;51.628;6.664;2022-11-20T01:48:12;16.37;;;12.93;;
9906;SDS011;4992;51.628;6.664;2022-11-20T01:50:38;16.07;;;13.33;;
9906;SDS011;4992;51.628;6.664;2022-11-20T01:53:06;14.60;;;12.00;;
9906;SDS011;4992;51.628;6.664;2022-11-20T01:55:36;17.17;;;13.87;;
9906;SDS011;4992;51.628;6.664;2022-11-20T01:58:04;15.07;;;12.10;;
9906;SDS011;4992;51.628;6.664;2022-11-20T02:00:31;17.10;;;12.63;;
9906;SDS011;4992;51.628;6.664;2022-11-20T02:03:07;15.47;;;13.00;;
9906;SDS011;4992;51.628;6.664;2022-11-20T02:05:41;16.80;;;13.30;;
9906;SDS011;4992;51.628;6.664;2022-11-20T02:08:28;15.50;;;13.00;;
9906;SDS011;4992;51.628;6.664;2022-11-20T02:10:55;14.77;;;12.77;;
9906;SDS011;4992;51.628;6.664;2022-11-20T02:13:20;16.73;;;13.27;;
9906;SDS011;4992;51.628;6.664;2022-11-20T02:16:05;16.90;;;12.53;;
9906;SDS011;4992;51.628;6.664;2022-11-20T02:18:36;16.27;;;13.00;;
9906;SDS011;4992;51.628;6.664;2022-11-20T02:24:01;16.90;;;13.83;;
9906;SDS011;4992;51.628;6.664;2022-11-20T02:26:34;17.90;;;13.43;;
9906;SDS011;4992;51.628;6.664;2022-11-20T02:29:06;15.60;;;13.00;;
9906;SDS011;4992;51.628;6.664;2022-11-20T02:31:38;16.33;;;12.77;;
9906;SDS011;4992;51.628;6.664;2022-11-20T02:34:06;16.07;;;12.80;;
9906;SDS011;4992;51.628;6.664;2022-11-20T02:36:32;16.57;;;12.97;;
9906;SDS011;4992;51.628;6.664;2022-11-20T02:39:00;18.07;;;13.77;;
9906;SDS011;4992;51.628;6.664;2022-11-20T02:41:35;19.07;;;13.33;;
9906;SDS011;4992;51.628;6.664;2022-11-20T02:44:02;17.43;;;12.90;;
9906;SDS011;4992;51.628;6.664;2022-11-20T02:46:29;16.90;;;13.13;;
9906;SDS011;4992;51.628;6.664;2022-11-20T02:48:55;17.63;;;13.60;;
9906;SDS011;4992;51.628;6.664;2022-11-20T02:51:21;16.93;;;12.57;;
9906;SDS011;4992;51.628;6.664;2022-11-20T02:53:47;18.30;;;13.60;;
9906;SDS011;4992;51.628;6.664;2022-11-20T02:56:12;15.67;;;12.50;;
9906;SDS011;4992;51.628;6.664;2022-11-20T02:58:38;16.50;;;12.43;;
9906;SDS011;4992;51.628;6.664;2022-11-20T03:01:04;17.03;;;12.77;;
9906;SDS011;4992;51.628;6.664;2022-11-20T03:03:29;17.63;;;13.70;;
9906;SDS011;4992;51.628;6.664;2022-11-20T03:05:54;16.63;;;12.90;;
9906;SDS011;4992;51.628;6.664;2022-11-20T03:08:20;16.03;;;13.40;;
9906;SDS011;4992;51.628;6.664;2022-11-20T03:10:45;17.50;;;13.57;;
9906;SDS011;4992;51.628;6.664;2022-11-20T03:13:11;15.83;;;12.93;;
9906;SDS011;4992;51.628;6.664;2022-11-20T03:15:36;18.60;;;13.83;;
9906;SDS011;4992;51.628;6.664;2022-11-20T03:18:02;17.10;;;13.00;;
9906;SDS011;4992;51.628;6.664;2022-11-20T03:20:28;15.17;;;12.47;;
9906;SDS011;4992;51.628;6.664;2022-11-20T03:22:54;17.83;;;13.37;;
9906;SDS011;4992;51.628;6.664;2022-11-20T03:25:20;15.93;;;12.83;;
9906;SDS011;4992;51.628;6.664;2022-11-20T03:27:46;14.73;;;12.87;;
9906;SDS011;4992;51.628;6.664;2022-11-20T03:30:11;16.77;;;13.33;;
9906;SDS011;4992;51.628;6.664;2022-11-20T03:32:37;16.97;;;13.50;;
9906;SDS011;4992;51.628;6.664;2022-11-20T03:35:03;17.43;;;12.90;;
9906;SDS011;4992;51.628;6.664;2022-11-20T03:37:28;15.37;;;12.63;;
9906;SDS011;4992;51.628;6.664;2022-11-20T03:39:54;16.63;;;13.17;;
9906;SDS011;4992;51.628;6.664;2022-11-20T03:42:19;14.57;;;11.97;;
9906;SDS011;4992;51.628;6.664;2022-11-20T03:45:04;15.03;;;12.27;;
9906;SDS011;4992;51.628;6.664;2022-11-20T03:47:30;15.67;;;12.73;;
9906;SDS011;4992;51.628;6.664;2022-11-20T03:49:55;19.90;;;13.20;;
9906;SDS011;4992;51.628;6.664;2022-11-20T03:52:21;17.07;;;13.60;;
9906;SDS011;4992;51.628;6.664;2022-11-20T03:54:46;18.23;;;13.10;;
9906;SDS011;4992;51.628;6.664;2022-11-20T03:57:12;17.93;;;13.47;;
9906;SDS011;4992;51.628;6.664;2022-11-20T03:59:37;16.00;;;12.67;;
9906;SDS011;4992;51.628;6.664;2022-11-20T04:02:03;16.70;;;13.03;;
9906;SDS011;4992;51.628;6.664;2022-11-20T04:04:28;17.67;;;13.27;;
9906;SDS011;4992;51.628;6.664;2022-11-20T04:06:54;17.20;;;12.90;;
9906;SDS011;4992;51.628;6.664;2022-11-20T04:09:19;18.07;;;13.30;;
9906;SDS011;4992;51.628;6.664;2022-11-20T04:11:45;17.67;;;13.50;;
9906;SDS011;4992;51.628;6.664;2022-11-20T04:14:14;15.93;;;13.13;;
9906;SDS011;4992;51.628;6.664;2022-11-20T04:16:41;17.17;;;13.27;;
9906;SDS011;4992;51.628;6.664;2022-11-20T04:19:09;17.20;;;13.60;;
9906;SDS011;4992;51.628;6.664;2022-11-20T04:21:36;16.50;;;12.40;;
9906;SDS011;4992;51.628;6.664;2022-11-20T04:24:02;17.93;;;13.30;;
9906;SDS011;4992;51.628;6.664;2022-11-20T04:26:28;16.17;;;12.43;;
9906;SDS011;4992;51.628;6.664;2022-11-20T04:28:55;17.60;;;13.47;;
9906;SDS011;4992;51.628;6.664;2022-11-20T04:31:22;16.03;;;13.37;;
9906;SDS011;4992;51.628;6.664;2022-11-20T04:33:49;18.97;;;12.87;;
9906;SDS011;4992;51.628;6.664;2022-11-20T04:36:16;17.80;;;13.80;;
9906;SDS011;4992;51.628;6.664;2022-11-20T04:38:43;18.13;;;12.73;;
9906;SDS011;4992;51.628;6.664;2022-11-20T04:41:16;16.03;;;13.03;;
9906;SDS011;4992;51.628;6.664;2022-11-20T04:43:46;16.27;;;12.63;;
9906;SDS011;4992;51.628;6.664;2022-11-20T04:46:16;15.57;;;12.73;;
9906;SDS011;4992;51.628;6.664;2022-11-20T04:48:42;16.83;;;13.67;;
9906;SDS011;4992;51.628;6.664;2022-11-20T04:51:08;22.07;;;14.47;;
9906;SDS011;4992;51.628;6.664;2022-11-20T04:53:33;18.80;;;13.37;;
9906;SDS011;4992;51.628;6.664;2022-11-20T04:56:03;18.03;;;13.07;;
9906;SDS011;4992;51.628;6.664;2022-11-20T04:58:30;15.63;;;12.60;;
9906;SDS011;4992;51.628;6.664;2022-11-20T05:01:06;18.17;;;13.37;;
9906;SDS011;4992;51.628;6.664;2022-11-20T05:03:34;15.80;;;12.53;;
9906;SDS011;4992;51.628;6.664;2022-11-20T05:06:03;17.10;;;13.60;;
9906;SDS011;4992;51.628;6.664;2022-11-20T05:08:30;18.00;;;12.97;;
9906;SDS011;4992;51.628;6.664;2022-11-20T05:11:02;16.23;;;12.63;;
9906;SDS011;4992;51.628;6.664;2022-11-20T05:13:30;15.10;;;13.00;;
9906;SDS011;4992;51.628;6.664;2022-11-20T05:15:55;16.77;;;12.50;;
9906;SDS011;4992;51.628;6.664;2022-11-20T05:18:37;16.57;;;13.37;;
9906;SDS011;4992;51.628;6.664;2022-11-20T05:21:03;17.30;;;13.43;;
9906;SDS011;4992;51.628;6.664;2022-11-20T05:23:30;16.87;;;12.60;;
9906;SDS011;4992;51.628;6.664;2022-11-20T05:25:57;18.30;;;13.83;;
9906;SDS011;4992;51.628;6.664;2022-11-20T05:28:23;17.00;;;13.40;;
9906;SDS011;4992;51.628;6.664;2022-11-20T05:30:49;15.40;;;12.90;;
9906;SDS011;4992;51.628;6.664;2022-11-20T05:33:15;16.97;;;13.20;;
9906;SDS011;4992;51.628;6.664;2022-11-20T05:35:41;17.00;;;13.60;;
9906;SDS011;4992;51.628;6.664;2022-11-20T05:38:07;16.50;;;12.80;;
9906;SDS011;4992;51.628;6.664;2022-11-20T05:40:33;17.33;;;13.80;;
9906;SDS011;4992;51.628;6.664;2022-11-20T05:42:59;18.73;;;14.70;;
9906;SDS011;4992;51.628;6.664;2022-11-20T05:45:25;17.43;;;13.07;;
9906;SDS011;4992;51.628;6.664;2022-11-20T05:47:50;18.13;;;12.97;;
9906;SDS011;4992;51.628;6.664;2022-11-20T05:50:16;19.47;;;14.63;;
9906;SDS011;4992;51.628;6.664;2022-11-20T05:52:41;18.20;;;13.97;;
9906;SDS011;4992;51.628;6.664;2022-11-20T05:55:07;18.77;;;14.53;;
9906;SDS011;4992;51.628;6.664;2022-11-20T05:57:32;22.30;;;14.40;;
9906;SDS011;4992;51.628;6.664;2022-11-20T05:59:58;23.13;;;15.90;;
9906;SDS011;4992;51.628;6.664;2022-11-20T06:02:23;25.60;;;18.53;;
9906;SDS011;4992;51.628;6.664;2022-11-20T06:04:49;22.80;;;17.17;;
9906;SDS011;4992;51.628;6.664;2022-11-20T06:07:14;20.87;;;16.00;;
9906;SDS011;4992;51.628;6.664;2022-11-20T06:09:40;21.60;;;16.23;;
9906;SDS011;4992;51.628;6.664;2022-11-20T06:12:06;22.70;;;16.37;;
9906;SDS011;4992;51.628;6.664;2022-11-20T06:14:32;21.90;;;16.23;;
9906;SDS011;4992;51.628;6.664;2022-11-20T06:16:58;21.23;;;15.20;;
9906;SDS011;4992;51.628;6.664;2022-11-20T06:19:23;22.00;;;16.33;;
9906;SDS011;4992;51.628;6.664;2022-11-20T06:21:49;21.43;;;16.47;;
9906;SDS011;4992;51.628;6.664;2022-11-20T06:24:15;20.93;;;16.17;;
9906;SDS011;4992;51.628;6.664;2022-11-20T06:26:41;22.97;;;15.83;;
9906;SDS011;4992;51.628;6.664;2022-11-20T06:29:07;20.47;;;16.17;;
9906;SDS011;4992;51.628;6.664;2022-11-20T06:31:32;20.33;;;16.03;;
9906;SDS011;4992;51.628;6.664;2022-11-20T06:33:59;19.47;;;15.97;;
9906;SDS011;4992;51.628;6.664;2022-11-20T06:36:26;21.10;;;16.03;;
9906;SDS011;4992;51.628;6.664;2022-11-20T06:38:51;19.73;;;14.97;;
9906;SDS011;4992;51.628;6.664;2022-11-20T06:41:18;21.00;;;16.13;;
9906;SDS011;4992;51.628;6.664;2022-11-20T06:43:45;20.33;;;16.10;;
9906;SDS011;4992;51.628;6.664;2022-11-20T06:46:11;19.70;;;15.47;;
9906;SDS011;4992;51.628;6.664;2022-11-20T06:48:37;20.97;;;16.37;;
9906;SDS011;4992;51.628;6.664;2022-11-20T06:51:04;21.83;;;16.70;;
9906;SDS011;4992;51.628;6.664;2022-11-20T06:53:30;21.70;;;17.00;;
9906;SDS011;4992;51.628;6.664;2022-11-20T06:55:56;20.63;;;15.77;;
9906;SDS011;4992;51.628;6.664;2022-11-20T06:58:22;20.73;;;17.17;;
9906;SDS011;4992;51.628;6.664;2022-11-20T07:00:50;23.63;;;18.40;;
9906;SDS011;4992;51.628;6.664;2022-11-20T07:03:16;25.00;;;17.73;;
9906;SDS011;4992;51.628;6.664;2022-11-20T07:05:41;23.53;;;17.13;;
9906;SDS011;4992;51.628;6.664;2022-11-20T07:08:07;23.37;;;16.93;;
9906;SDS011;4992;51.628;6.664;2022-11-20T07:10:33;21.63;;;16.67;;
9906;SDS011;4992;51.628;6.664;2022-11-20T07:12:59;20.43;;;16.33;;
9906;SDS011;4992;51.628;6.664;2022-11-20T07:15:24;22.67;;;16.97;;
9906;SDS011;4992;51.628;6.664;2022-11-20T07:17:51;22.30;;;16.83;;
9906;SDS011;4992;51.628;6.664;2022-11-20T07:20:16;22.97;;;16.47;;
9906;SDS011;4992;51.628;6.664;2022-11-20T07:22:42;23.50;;;19.00;;
9906;SDS011;4992;51.628;6.664;2022-11-20T07:25:08;21.10;;;16.23;;
9906;SDS011;4992;51.628;6.664;2022-11-20T07:27:34;19.53;;;15.73;;
9906;SDS011;4992;51.628;6.664;2022-11-20T07:30:01;22.10;;;15.43;;
9906;SDS011;4992;51.628;6.664;2022-11-20T07:32:28;20.13;;;14.33;;
9906;SDS011;4992;51.628;6.664;2022-11-20T07:34:53;19.70;;;15.73;;
9906;SDS011;4992;51.628;6.664;2022-11-20T07:37:19;21.63;;;15.63;;
9906;SDS011;4992;51.628;6.664;2022-11-20T07:39:44;21.73;;;16.33;;
9906;SDS011;4992;51.628;6.664;2022-11-20T07:42:10;24.87;;;17.00;;
9906;SDS011;4992;51.628;6.664;2022-11-20T07:44:37;20.90;;;16.57;;
9906;SDS011;4992;51.628;6.664;2022-11-20T07:47:02;26.10;;;17.70;;
9906;SDS011;4992;51.628;6.664;2022-11-20T07:49:28;25.40;;;19.43;;
9906;SDS011;4992;51.628;6.664;2022-11-20T07:51:53;23.80;;;17.93;;
9906;SDS011;4992;51.628;6.664;2022-11-20T07:54:22;21.43;;;17.17;;
9906;SDS011;4992;51.628;6.664;2022-11-20T07:56:48;22.83;;;17.23;;
9906;SDS011;4992;51.628;6.664;2022-11-20T07:59:13;23.03;;;17.50;;
9906;SDS011;4992;51.628;6.664;2022-11-20T08:01:40;21.93;;;17.80;;
9906;SDS011;4992;51.628;6.664;2022-11-20T08:04:06;26.77;;;18.83;;
9906;SDS011;4992;51.628;6.664;2022-11-20T08:06:31;26.93;;;20.07;;
9906;SDS011;4992;51.628;6.664;2022-11-20T08:08:57;27.57;;;20.57;;
9906;SDS011;4992;51.628;6.664;2022-11-20T08:11:23;25.40;;;19.83;;
9906;SDS011;4992;51.628;6.664;2022-11-20T08:14:07;26.43;;;19.60;;
9906;SDS011;4992;51.628;6.664;2022-11-20T08:16:39;23.30;;;18.40;;
9906;SDS011;4992;51.628;6.664;2022-11-20T08:19:05;25.40;;;19.07;;
9906;SDS011;4992;51.628;6.664;2022-11-20T08:21:31;22.50;;;17.57;;
9906;SDS011;4992;51.628;6.664;2022-11-20T08:23:57;22.47;;;17.40;;
9906;SDS011;4992;51.628;6.664;2022-11-20T08:26:23;21.93;;;17.03;;
9906;SDS011;4992;51.628;6.664;2022-11-20T08:28:52;22.50;;;16.20;;
9906;SDS011;4992;51.628;6.664;2022-11-20T08:31:19;23.70;;;16.13;;
9906;SDS011;4992;51.628;6.664;2022-11-20T08:33:45;20.83;;;16.67;;
9906;SDS011;4992;51.628;6.664;2022-11-20T08:36:11;24.30;;;18.20;;
9906;SDS011;4992;51.628;6.664;2022-11-20T08:38:37;23.50;;;18.20;;
9906;SDS011;4992;51.628;6.664;2022-11-20T08:41:03;22.37;;;17.63;;
9906;SDS011;4992;51.628;6.664;2022-11-20T08:43:48;22.80;;;17.70;;
9906;SDS011;4992;51.628;6.664;2022-11-20T08:46:14;20.80;;;17.87;;
9906;SDS011;4992;51.628;6.664;2022-11-20T08:48:39;23.13;;;17.83;;
9906;SDS011;4992;51.628;6.664;2022-11-20T08:51:05;21.50;;;17.63;;
9906;SDS011;4992;51.628;6.664;2022-11-20T08:53:30;21.83;;;17.20;;
9906;SDS011;4992;51.628;6.664;2022-11-20T08:55:56;28.63;;;18.07;;
9906;SDS011;4992;51.628;6.664;2022-11-20T08:58:23;22.57;;;18.00;;
9906;SDS011;4992;51.628;6.664;2022-11-20T09:00:48;23.27;;;17.77;;
9906;SDS011;4992;51.628;6.664;2022-11-20T09:03:14;23.83;;;18.17;;
9906;SDS011;4992;51.628;6.664;2022-11-20T09:05:39;23.03;;;18.20;;
9906;SDS011;4992;51.628;6.664;2022-11-20T09:08:05;23.07;;;18.57;;
9906;SDS011;4992;51.628;6.664;2022-11-20T09:10:31;22.63;;;17.90;;
9906;SDS011;4992;51.628;6.664;2022-11-20T09:12:57;22.70;;;18.47;;
9906;SDS011;4992;51.628;6.664;2022-11-20T09:15:23;20.50;;;16.07;;
9906;SDS011;4992;51.628;6.664;2022-11-20T09:17:57;22.20;;;17.10;;
9906;SDS011;4992;51.628;6.664;2022-11-20T09:20:27;24.43;;;18.07;;
9906;SDS011;4992;51.628;6.664;2022-11-20T09:22:53;23.27;;;17.27;;
9906;SDS011;4992;51.628;6.664;2022-11-20T09:25:19;22.40;;;17.07;;
9906;SDS011;4992;51.628;6.664;2022-11-20T09:27:45;21.20;;;17.67;;
9906;SDS011;4992;51.628;6.664;2022-11-20T09:30:12;22.20;;;16.97;;
9906;SDS011;4992;51.628;6.664;2022-11-20T09:32:38;25.17;;;16.90;;
9906;SDS011;4992;51.628;6.664;2022-11-20T09:35:04;26.57;;;18.37;;
9906;SDS011;4992;51.628;6.664;2022-11-20T09:37:30;21.60;;;17.40;;
9906;SDS011;4992;51.628;6.664;2022-11-20T09:39:55;23.37;;;17.70;;
9906;SDS011;4992;51.628;6.664;2022-11-20T09:45:11;23.37;;;18.20;;
9906;SDS011;4992;51.628;6.664;2022-11-20T09:50:27;28.30;;;19.70;;
9906;SDS011;4992;51.628;6.664;2022-11-20T09:55:36;27.70;;;19.57;;
9906;SDS011;4992;51.628;6.664;2022-11-20T09:58:02;27.00;;;20.47;;
9906;SDS011;4992;51.628;6.664;2022-11-20T10:00:32;25.20;;;19.83;;
9906;SDS011;4992;51.628;6.664;2022-11-20T10:03:06;29.00;;;20.73;;
9906;SDS011;4992;51.628;6.664;2022-11-20T10:05:55;28.43;;;21.50;;
9906;SDS011;4992;51.628;6.664;2022-11-20T10:08:22;28.00;;;20.13;;
9906;SDS011;4992;51.628;6.664;2022-11-20T10:13:48;21.97;;;17.73;;
9906;SDS011;4992;51.628;6.664;2022-11-20T10:22:47;26.83;;;19.03;;
9906;SDS011;4992;51.628;6.664;2022-11-20T10:25:12;23.13;;;17.70;;
9906;SDS011;4992;51.628;6.664;2022-11-20T10:27:58;22.43;;;17.40;;
9906;SDS011;4992;51.628;6.664;2022-11-20T10:30:53;22.13;;;17.63;;
9906;SDS011;4992;51.628;6.664;2022-11-20T10:33:35;22.53;;;17.57;;
9906;SDS011;4992;51.628;6.664;2022-11-20T10:36:23;22.80;;;17.87;;
9906;SDS011;4992;51.628;6.664;2022-11-20T10:38:57;23.87;;;17.67;;
9906;SDS011;4992;51.628;6.664;2022-11-20T10:41:27;22.37;;;18.00;;
9906;SDS011;4992;51.628;6.664;2022-11-20T10:44:09;21.40;;;17.53;;
9906;SDS011;4992;51.628;6.664;2022-11-20T10:47:00;19.80;;;15.60;;
9906;SDS011;4992;51.628;6.664;2022-11-20T10:49:26;17.03;;;15.23;;
9906;SDS011;4992;51.628;6.664;2022-11-20T10:52:04;18.73;;;13.70;;
9906;SDS011;4992;51.628;6.664;2022-11-20T10:54:59;17.20;;;14.20;;
9906;SDS011;4992;51.628;6.664;2022-11-20T10:57:52;15.60;;;12.90;;
9906;SDS011;4992;51.628;6.664;2022-11-20T11:00:35;16.33;;;13.93;;
9906;SDS011;4992;51.628;6.664;2022-11-20T11:03:00;16.33;;;13.50;;
9906;SDS011;4992;51.628;6.664;2022-11-20T11:05:39;16.23;;;13.27;;
9906;SDS011;4992;51.628;6.664;2022-11-20T11:08:16;16.67;;;13.80;;
9906;SDS011;4992;51.628;6.664;2022-11-20T11:10:54;15.47;;;12.63;;
9906;SDS011;4992;51.628;6.664;2022-11-20T11:13:24;19.33;;;15.07;;
9906;SDS011;4992;51.628;6.664;2022-11-20T11:15:51;21.50;;;16.30;;
9906;SDS011;4992;51.628;6.664;2022-11-20T11:20:57;20.77;;;16.43;;
9906;SDS011;4992;51.628;6.664;2022-11-20T11:23:40;19.83;;;14.73;;
9906;SDS011;4992;51.628;6.664;2022-11-20T11:26:21;15.80;;;13.83;;
9906;SDS011;4992;51.628;6.664;2022-11-20T11:28:54;14.17;;;12.50;;
9906;SDS011;4992;51.628;6.664;2022-11-20T11:31:22;15.93;;;13.63;;
9906;SDS011;4992;51.628;6.664;2022-11-20T11:33:48;15.50;;;13.47;;
9906;SDS011;4992;51.628;6.664;2022-11-20T11:36:18;15.63;;;13.37;;
9906;SDS011;4992;51.628;6.664;2022-11-20T11:38:48;18.03;;;14.60;;
9906;SDS011;4992;51.628;6.664;2022-11-20T11:41:19;19.53;;;14.90;;
9906;SDS011;4992;51.628;6.664;2022-11-20T11:43:52;19.20;;;15.10;;
9906;SDS011;4992;51.628;6.664;2022-11-20T11:46:38;16.93;;;14.90;;
9906;SDS011;4992;51.628;6.664;2022-11-20T11:51:36;19.60;;;16.33;;
9906;SDS011;4992;51.628;6.664;2022-11-20T11:54:15;18.53;;;15.03;;
9906;SDS011;4992;51.628;6.664;2022-11-20T11:56:46;19.17;;;15.13;;
9906;SDS011;4992;51.628;6.664;2022-11-20T11:59:15;19.23;;;15.07;;
9906;SDS011;4992;51.628;6.664;2022-11-20T12:01:53;20.10;;;15.50;;
9906;SDS011;4992;51.628;6.664;2022-11-20T12:07:15;22.20;;;17.30;;
9906;SDS011;4992;51.628;6.664;2022-11-20T12:09:53;20.40;;;16.67;;
9906;SDS011;4992;51.628;6.664;2022-11-20T12:12:25;20.80;;;16.43;;
9906;SDS011;4992;51.628;6.664;2022-11-20T12:14:56;24.23;;;18.03;;
9906;SDS011;4992;51.628;6.664;2022-11-20T12:17:23;21.77;;;16.83;;
9906;SDS011;4992;51.628;6.664;2022-11-20T12:19:49;22.80;;;16.70;;
9906;SDS011;4992;51.628;6.664;2022-11-20T12:25:22;21.67;;;16.60;;
9906;SDS011;4992;51.628;6.664;2022-11-20T12:30:24;21.80;;;16.57;;
9906;SDS011;4992;51.628;6.664;2022-11-20T12:44:31;20.13;;;16.10;;
9906;SDS011;4992;51.628;6.664;2022-11-20T12:47:24;21.03;;;15.70;;
9906;SDS011;4992;51.628;6.664;2022-11-20T12:50:21;20.83;;;16.40;;
9906;SDS011;4992;51.628;6.664;2022-11-20T12:53:11;20.60;;;16.23;;
9906;SDS011;4992;51.628;6.664;2022-11-20T12:55:53;24.33;;;17.47;;
9906;SDS011;4992;51.628;6.664;2022-11-20T13:01:11;27.30;;;18.20;;
9906;SDS011;4992;51.628;6.664;2022-11-20T13:04:08;23.97;;;17.30;;
9906;SDS011;4992;51.628;6.664;2022-11-20T13:06:48;24.13;;;17.90;;
9906;SDS011;4992;51.628;6.664;2022-11-20T13:09:15;24.63;;;17.10;;
9906;SDS011;4992;51.628;6.664;2022-11-20T13:11:48;23.77;;;18.13;;
9906;SDS011;4992;51.628;6.664;2022-11-20T13:19:52;24.87;;;17.23;;
9906;SDS011;4992;51.628;6.664;2022-11-20T13:22:25;24.30;;;17.60;;
9906;SDS011;4992;51.628;6.664;2022-11-20T13:24:52;25.80;;;19.23;;
9906;SDS011;4992;51.628;6.664;2022-11-20T13:27:20;45.03;;;21.20;;
9906;SDS011;4992;51.628;6.664;2022-11-20T13:35:27;26.47;;;18.27;;
9906;SDS011;4992;51.628;6.664;2022-11-20T13:38:12;25.80;;;18.63;;
9906;SDS011;4992;51.628;6.664;2022-11-20T13:40:52;26.27;;;18.20;;
9906;SDS011;4992;51.628;6.664;2022-11-20T13:45:59;21.27;;;14.77;;
9906;SDS011;4992;51.628;6.664;2022-11-20T13:48:27;20.63;;;15.87;;
9906;SDS011;4992;51.628;6.664;2022-11-20T13:53:47;26.30;;;17.60;;
9906;SDS011;4992;51.628;6.664;2022-11-20T13:56:34;22.93;;;17.00;;
9906;SDS011;4992;51.628;6.664;2022-11-20T14:02:13;23.90;;;16.53;;
9906;SDS011;4992;51.628;6.664;2022-11-20T14:04:48;23.03;;;16.47;;
9906;SDS011;4992;51.628;6.664;2022-11-20T14:07:16;23.90;;;16.73;;
9906;SDS011;4992;51.628;6.664;2022-11-20T14:09:52;24.40;;;16.43;;
9906;SDS011;4992;51.628;6.664;2022-11-20T14:12:20;22.23;;;17.20;;
9906;SDS011;4992;51.628;6.664;2022-11-20T14:14:51;22.37;;;16.67;;
9906;SDS011;4992;51.628;6.664;2022-11-20T14:19:53;21.80;;;16.53;;
9906;SDS011;4992;51.628;6.664;2022-11-20T14:22:23;23.37;;;17.23;;
9906;SDS011;4992;51.628;6.664;2022-11-20T14:27:43;24.07;;;17.10;;
9906;SDS011;4992;51.628;6.664;2022-11-20T14:30:16;24.60;;;17.63;;
9906;SDS011;4992;51.628;6.664;2022-11-20T14:32:46;27.47;;;19.63;;
9906;SDS011;4992;51.628;6.664;2022-11-20T14:35:14;23.00;;;17.20;;
9906;SDS011;4992;51.628;6.664;2022-11-20T14:37:46;26.50;;;18.57;;
9906;SDS011;4992;51.628;6.664;2022-11-20T14:40:26;24.23;;;17.60;;
9906;SDS011;4992;51.628;6.664;2022-11-20T14:42:51;27.27;;;18.07;;
9906;SDS011;4992;51.628;6.664;2022-11-20T14:45:17;29.80;;;20.10;;
9906;SDS011;4992;51.628;6.664;2022-11-20T14:47:43;29.00;;;19.87;;
9906;SDS011;4992;51.628;6.664;2022-11-20T14:50:14;26.87;;;19.10;;
9906;SDS011;4992;51.628;6.664;2022-11-20T14:52:53;25.53;;;18.43;;
9906;SDS011;4992;51.628;6.664;2022-11-20T14:57:56;28.57;;;19.00;;
9906;SDS011;4992;51.628;6.664;2022-11-20T15:00:24;32.73;;;20.13;;
9906;SDS011;4992;51.628;6.664;2022-11-20T15:02:50;27.83;;;20.07;;
9906;SDS011;4992;51.628;6.664;2022-11-20T15:05:17;29.77;;;19.80;;
9906;SDS011;4992;51.628;6.664;2022-11-20T15:07:46;33.37;;;20.30;;
9906;SDS011;4992;51.628;6.664;2022-11-20T15:12:54;29.40;;;20.33;;
9906;SDS011;4992;51.628;6.664;2022-11-20T15:15:50;30.00;;;20.27;;
9906;SDS011;4992;51.628;6.664;2022-11-20T15:18:36;29.17;;;19.87;;
9906;SDS011;4992;51.628;6.664;2022-11-20T15:21:08;30.43;;;19.70;;
9906;SDS011;4992;51.628;6.664;2022-11-20T15:23:38;31.17;;;21.53;;
9906;SDS011;4992;51.628;6.664;2022-11-20T15:26:04;30.90;;;20.63;;
9906;SDS011;4992;51.628;6.664;2022-11-20T15:28:35;30.37;;;21.13;;
9906;SDS011;4992;51.628;6.664;2022-11-20T15:31:04;31.70;;;20.37;;
9906;SDS011;4992;51.628;6.664;2022-11-20T15:33:30;32.93;;;21.03;;
9906;SDS011;4992;51.628;6.664;2022-11-20T15:35:57;30.00;;;19.77;;
9906;SDS011;4992;51.628;6.664;2022-11-20T15:38:22;28.57;;;21.07;;
9906;SDS011;4992;51.628;6.664;2022-11-20T15:40:48;30.70;;;21.63;;
9906;SDS011;4992;51.628;6.664;2022-11-20T15:43:13;30.63;;;19.60;;
9906;SDS011;4992;51.628;6.664;2022-11-20T15:50:49;30.10;;;19.57;;
9906;SDS011;4992;51.628;6.664;2022-11-20T15:53:18;32.13;;;20.50;;
9906;SDS011;4992;51.628;6.664;2022-11-20T15:55:44;29.90;;;20.47;;
9906;SDS011;4992;51.628;6.664;2022-11-20T15:58:10;32.53;;;20.43;;
9906;SDS011;4992;51.628;6.664;2022-11-20T16:00:35;30.77;;;22.20;;
9906;SDS011;4992;51.628;6.664;2022-11-20T16:03:01;31.00;;;20.80;;
9906;SDS011;4992;51.628;6.664;2022-11-20T16:05:29;33.13;;;20.57;;
9906;SDS011;4992;51.628;6.664;2022-11-20T16:07:55;33.83;;;19.67;;
9906;SDS011;4992;51.628;6.664;2022-11-20T16:10:21;28.57;;;19.00;;
9906;SDS011;4992;51.628;6.664;2022-11-20T16:12:47;34.37;;;20.43;;
9906;SDS011;4992;51.628;6.664;2022-11-20T16:15:31;29.37;;;19.33;;
9906;SDS011;4992;51.628;6.664;2022-11-20T16:18:14;30.97;;;19.43;;
9906;SDS011;4992;51.628;6.664;2022-11-20T16:20:44;28.53;;;19.60;;
9906;SDS011;4992;51.628;6.664;2022-11-20T16:23:11;29.63;;;20.13;;
9906;SDS011;4992;51.628;6.664;2022-11-20T16:25:37;32.47;;;19.67;;